sensor_id;sensor_type;location;lat;lon;timestamp;pressure;altitude;pressure_sealevel;temperature;humidity
70468;BME280;57934;51.532;7.684;2022-07-23T00:01:36;100654.72;;;16.74;83.36
70468;BME280;57934;51.532;7.684;2022-07-23T00:04:02;100639.44;;;16.51;84.90
70468;BME280;57934;51.532;7.684;2022-07-23T00:06:28;100649.94;;;16.27;86.89
70468;BME280;57934;51.532;7.684;2022-07-23T00:08:54;100648.31;;;16.08;88.69
70468;BME280;57934;51.532;7.684;2022-07-23T00:11:20;100629.22;;;15.92;90.84
70468;BME280;57934;51.532;7.684;2022-07-23T00:13:48;100631.00;;;15.80;91.91
70468;BME280;57934;51.532;7.684;2022-07-23T00:16:14;100627.97;;;15.77;93.45
70468;BME280;57934;51.532;7.684;2022-07-23T00:18:40;100622.25;;;15.73;94.46
70468;BME280;57934;51.532;7.684;2022-07-23T00:21:06;100616.13;;;15.72;95.47
70468;BME280;57934;51.532;7.684;2022-07-23T00:23:33;100603.31;;;15.63;95.86
70468;BME280;57934;51.532;7.684;2022-07-23T00:25:59;100618.50;;;15.56;96.33
70468;BME280;57934;51.532;7.684;2022-07-23T00:28:25;100621.97;;;15.56;97.14
70468;BME280;57934;51.532;7.684;2022-07-23T00:30:51;100624.44;;;15.51;97.64
70468;BME280;57934;51.532;7.684;2022-07-23T00:33:17;100626.34;;;15.44;98.36
70468;BME280;57934;51.532;7.684;2022-07-23T00:35:43;100626.84;;;15.34;98.95
70468;BME280;57934;51.532;7.684;2022-07-23T00:38:10;100633.44;;;15.25;99.28
70468;BME280;57934;51.532;7.684;2022-07-23T00:40:37;100629.97;;;15.24;99.87
70468;BME280;57934;51.532;7.684;2022-07-23T00:43:04;100631.41;;;15.27;100.00
70468;BME280;57934;51.532;7.684;2022-07-23T00:45:30;100621.41;;;15.22;100.00
70468;BME280;57934;51.532;7.684;2022-07-23T00:47:56;100623.69;;;15.19;100.00
70468;BME280;57934;51.532;7.684;2022-07-23T00:50:23;100632.06;;;15.16;100.00
70468;BME280;57934;51.532;7.684;2022-07-23T00:52:49;100636.34;;;15.23;100.00
70468;BME280;57934;51.532;7.684;2022-07-23T00:55:15;100630.13;;;15.30;100.00
70468;BME280;57934;51.532;7.684;2022-07-23T00:57:42;100624.66;;;15.24;100.00
70468;BME280;57934;51.532;7.684;2022-07-23T01:00:11;100610.63;;;15.17;100.00
70468;BME280;57934;51.532;7.684;2022-07-23T01:02:38;100618.38;;;15.19;100.00
70468;BME280;57934;51.532;7.684;2022-07-23T01:05:04;100601.56;;;15.25;100.00
70468;BME280;57934;51.532;7.684;2022-07-23T01:07:31;100593.00;;;15.23;100.00
70468;BME280;57934;51.532;7.684;2022-07-23T01:09:57;100592.19;;;15.22;100.00
70468;BME280;57934;51.532;7.684;2022-07-23T01:12:23;100591.69;;;15.32;100.00
70468;BME280;57934;51.532;7.684;2022-07-23T01:14:57;100596.97;;;15.39;100.00
70468;BME280;57934;51.532;7.684;2022-07-23T01:17:24;100605.31;;;15.42;100.00
70468;BME280;57934;51.532;7.684;2022-07-23T01:19:50;100594.44;;;15.44;100.00
70468;BME280;57934;51.532;7.684;2022-07-23T01:22:18;100597.13;;;15.44;100.00
70468;BME280;57934;51.532;7.684;2022-07-23T01:24:45;100591.00;;;15.43;100.00
70468;BME280;57934;51.532;7.684;2022-07-23T01:27:11;100593.06;;;15.41;100.00
70468;BME280;57934;51.532;7.684;2022-07-23T01:29:39;100593.66;;;15.43;100.00
70468;BME280;57934;51.532;7.684;2022-07-23T01:32:11;100591.59;;;15.45;100.00
70468;BME280;57934;51.532;7.684;2022-07-23T01:34:37;100597.13;;;15.44;100.00
70468;BME280;57934;51.532;7.684;2022-07-23T01:37:03;100598.44;;;15.35;100.00
70468;BME280;57934;51.532;7.684;2022-07-23T01:39:30;100593.31;;;15.33;100.00
70468;BME280;57934;51.532;7.684;2022-07-23T01:41:56;100591.94;;;15.31;100.00
70468;BME280;57934;51.532;7.684;2022-07-23T01:44:23;100589.47;;;15.29;100.00
70468;BME280;57934;51.532;7.684;2022-07-23T01:46:50;100592.50;;;15.33;100.00
70468;BME280;57934;51.532;7.684;2022-07-23T01:49:17;100592.75;;;15.31;100.00
70468;BME280;57934;51.532;7.684;2022-07-23T01:52:02;100588.00;;;15.33;100.00
70468;BME280;57934;51.532;7.684;2022-07-23T01:54:35;100591.84;;;15.37;100.00
70468;BME280;57934;51.532;7.684;2022-07-23T01:57:03;100586.53;;;15.37;100.00
70468;BME280;57934;51.532;7.684;2022-07-23T01:59:29;100587.75;;;15.41;100.00
70468;BME280;57934;51.532;7.684;2022-07-23T02:01:55;100583.25;;;15.42;100.00
70468;BME280;57934;51.532;7.684;2022-07-23T02:04:23;100577.13;;;15.41;100.00
70468;BME280;57934;51.532;7.684;2022-07-23T02:06:51;100577.13;;;15.41;100.00
70468;BME280;57934;51.532;7.684;2022-07-23T02:09:18;100579.97;;;15.40;100.00
70468;BME280;57934;51.532;7.684;2022-07-23T02:11:46;100573.47;;;15.36;100.00
70468;BME280;57934;51.532;7.684;2022-07-23T02:14:12;100568.16;;;15.36;100.00
70468;BME280;57934;51.532;7.684;2022-07-23T02:16:39;100559.53;;;15.40;100.00
70468;BME280;57934;51.532;7.684;2022-07-23T02:19:05;100571.38;;;15.44;100.00
70468;BME280;57934;51.532;7.684;2022-07-23T02:21:31;100568.31;;;15.41;100.00
70468;BME280;57934;51.532;7.684;2022-07-23T02:23:57;100573.44;;;15.42;100.00
70468;BME280;57934;51.532;7.684;2022-07-23T02:26:23;100575.66;;;15.45;100.00
70468;BME280;57934;51.532;7.684;2022-07-23T02:28:51;100571.16;;;15.46;100.00
70468;BME280;57934;51.532;7.684;2022-07-23T02:31:19;100565.44;;;15.42;100.00
70468;BME280;57934;51.532;7.684;2022-07-23T02:33:45;100567.34;;;15.35;100.00
70468;BME280;57934;51.532;7.684;2022-07-23T02:36:11;100572.88;;;15.34;100.00
70468;BME280;57934;51.532;7.684;2022-07-23T02:38:37;100566.97;;;15.32;100.00
70468;BME280;57934;51.532;7.684;2022-07-23T02:41:03;100572.28;;;15.32;100.00
70468;BME280;57934;51.532;7.684;2022-07-23T02:43:31;100580.53;;;15.23;100.00
70468;BME280;57934;51.532;7.684;2022-07-23T02:45:57;100582.22;;;15.18;100.00
70468;BME280;57934;51.532;7.684;2022-07-23T02:48:23;100575.47;;;15.15;100.00
70468;BME280;57934;51.532;7.684;2022-07-23T02:50:49;100573.44;;;15.17;100.00
70468;BME280;57934;51.532;7.684;2022-07-23T02:53:21;100569.97;;;15.17;100.00
70468;BME280;57934;51.532;7.684;2022-07-23T02:55:48;100574.84;;;15.20;100.00
70468;BME280;57934;51.532;7.684;2022-07-23T02:58:14;100569.59;;;15.13;100.00
70468;BME280;57934;51.532;7.684;2022-07-23T03:00:40;100566.31;;;15.11;100.00
70468;BME280;57934;51.532;7.684;2022-07-23T03:03:06;100575.53;;;15.09;100.00
70468;BME280;57934;51.532;7.684;2022-07-23T03:05:34;100570.44;;;15.07;100.00
70468;BME280;57934;51.532;7.684;2022-07-23T03:08:00;100572.72;;;15.03;100.00
70468;BME280;57934;51.532;7.684;2022-07-23T03:10:26;100568.44;;;15.02;100.00
70468;BME280;57934;51.532;7.684;2022-07-23T03:12:52;100577.84;;;14.98;100.00
70468;BME280;57934;51.532;7.684;2022-07-23T03:15:18;100569.94;;;14.92;100.00
70468;BME280;57934;51.532;7.684;2022-07-23T03:17:44;100570.13;;;14.90;100.00
70468;BME280;57934;51.532;7.684;2022-07-23T03:20:10;100569.09;;;14.91;100.00
70468;BME280;57934;51.532;7.684;2022-07-23T03:22:38;100571.56;;;14.93;100.00
70468;BME280;57934;51.532;7.684;2022-07-23T03:25:04;100569.94;;;14.92;100.00
70468;BME280;57934;51.532;7.684;2022-07-23T03:27:34;100579.72;;;14.91;100.00
70468;BME280;57934;51.532;7.684;2022-07-23T03:30:00;100581.19;;;14.87;100.00
70468;BME280;57934;51.532;7.684;2022-07-23T03:32:26;100580.22;;;14.82;100.00
70468;BME280;57934;51.532;7.684;2022-07-23T03:34:52;100581.66;;;14.77;100.00
70468;BME280;57934;51.532;7.684;2022-07-23T03:37:19;100580.03;;;14.76;100.00
70468;BME280;57934;51.532;7.684;2022-07-23T03:39:46;100583.91;;;14.74;100.00
70468;BME280;57934;51.532;7.684;2022-07-23T03:42:12;100581.47;;;14.72;100.00
70468;BME280;57934;51.532;7.684;2022-07-23T03:44:38;100582.47;;;14.78;100.00
70468;BME280;57934;51.532;7.684;2022-07-23T03:47:05;100575.34;;;14.78;100.00
70468;BME280;57934;51.532;7.684;2022-07-23T03:49:32;100580.84;;;14.77;100.00
70468;BME280;57934;51.532;7.684;2022-07-23T03:51:58;100571.69;;;14.73;100.00
70468;BME280;57934;51.532;7.684;2022-07-23T03:54:25;100582.28;;;14.73;100.00
70468;BME280;57934;51.532;7.684;2022-07-23T03:56:51;100569.06;;;14.66;100.00
70468;BME280;57934;51.532;7.684;2022-07-23T03:59:17;100570.91;;;14.66;100.00
70468;BME280;57934;51.532;7.684;2022-07-23T04:01:44;100568.88;;;14.68;100.00
70468;BME280;57934;51.532;7.684;2022-07-23T04:04:11;100571.28;;;14.69;100.00
70468;BME280;57934;51.532;7.684;2022-07-23T04:06:39;100576.19;;;14.72;100.00
70468;BME280;57934;51.532;7.684;2022-07-23T04:09:05;100588.22;;;14.75;100.00
70468;BME280;57934;51.532;7.684;2022-07-23T04:11:32;100579.44;;;14.74;100.00
70468;BME280;57934;51.532;7.684;2022-07-23T04:13:58;100577.78;;;14.73;100.00
70468;BME280;57934;51.532;7.684;2022-07-23T04:16:24;100578.19;;;14.77;100.00
70468;BME280;57934;51.532;7.684;2022-07-23T04:18:50;100585.31;;;14.83;100.00
70468;BME280;57934;51.532;7.684;2022-07-23T04:21:20;100579.72;;;14.91;100.00
70468;BME280;57934;51.532;7.684;2022-07-23T04:23:46;100584.41;;;14.96;100.00
70468;BME280;57934;51.532;7.684;2022-07-23T04:26:13;100585.59;;;15.00;100.00
70468;BME280;57934;51.532;7.684;2022-07-23T04:28:39;100583.72;;;15.07;100.00
70468;BME280;57934;51.532;7.684;2022-07-23T04:31:05;100586.16;;;15.09;100.00
70468;BME280;57934;51.532;7.684;2022-07-23T04:33:33;100583.06;;;15.12;100.00
70468;BME280;57934;51.532;7.684;2022-07-23T04:36:04;100589.75;;;15.21;100.00
70468;BME280;57934;51.532;7.684;2022-07-23T04:38:30;100594.22;;;15.27;100.00
70468;BME280;57934;51.532;7.684;2022-07-23T04:41:00;100592.31;;;15.34;100.00
70468;BME280;57934;51.532;7.684;2022-07-23T04:43:26;100590.09;;;15.31;100.00
70468;BME280;57934;51.532;7.684;2022-07-23T04:45:54;100595.78;;;15.35;100.00
70468;BME280;57934;51.532;7.684;2022-07-23T04:48:20;100596.97;;;15.39;100.00
70468;BME280;57934;51.532;7.684;2022-07-23T04:50:48;100598.81;;;15.38;100.00
70468;BME280;57934;51.532;7.684;2022-07-23T04:53:22;100608.41;;;15.39;100.00
70468;BME280;57934;51.532;7.684;2022-07-23T04:55:51;100611.88;;;15.40;100.00
70468;BME280;57934;51.532;7.684;2022-07-23T04:58:17;100612.91;;;15.39;100.00
70468;BME280;57934;51.532;7.684;2022-07-23T05:00:43;100610.03;;;15.40;100.00
70468;BME280;57934;51.532;7.684;2022-07-23T05:03:09;100610.34;;;15.50;100.00
70468;BME280;57934;51.532;7.684;2022-07-23T05:05:35;100615.03;;;15.55;100.00
70468;BME280;57934;51.532;7.684;2022-07-23T05:08:09;100614.81;;;15.57;100.00
70468;BME280;57934;51.532;7.684;2022-07-23T05:10:37;100619.13;;;15.51;99.26
70468;BME280;57934;51.532;7.684;2022-07-23T05:13:03;100626.09;;;15.52;98.69
70468;BME280;57934;51.532;7.684;2022-07-23T05:15:29;100624.31;;;15.46;98.29
70468;BME280;57934;51.532;7.684;2022-07-23T05:17:56;100628.16;;;15.50;98.55
70468;BME280;57934;51.532;7.684;2022-07-23T05:20:22;100632.75;;;15.61;98.93
70468;BME280;57934;51.532;7.684;2022-07-23T05:22:48;100633.53;;;15.68;98.70
70468;BME280;57934;51.532;7.684;2022-07-23T05:25:14;100635.34;;;15.74;98.54
70468;BME280;57934;51.532;7.684;2022-07-23T05:27:40;100628.34;;;15.80;98.53
70468;BME280;57934;51.532;7.684;2022-07-23T05:30:07;100628.28;;;15.87;98.01
70468;BME280;57934;51.532;7.684;2022-07-23T05:32:36;100638.38;;;15.96;97.90
70468;BME280;57934;51.532;7.684;2022-07-23T05:35:11;100637.81;;;15.94;96.86
70468;BME280;57934;51.532;7.684;2022-07-23T05:37:41;100644.31;;;15.98;96.88
70468;BME280;57934;51.532;7.684;2022-07-23T05:40:09;100642.09;;;15.95;96.54
70468;BME280;57934;51.532;7.684;2022-07-23T05:42:38;100638.63;;;15.95;96.35
70468;BME280;57934;51.532;7.684;2022-07-23T05:45:06;100640.53;;;15.88;96.31
70468;BME280;57934;51.532;7.684;2022-07-23T05:47:47;100638.81;;;15.93;96.67
70468;BME280;57934;51.532;7.684;2022-07-23T05:50:19;100640.78;;;16.05;97.38
70468;BME280;57934;51.532;7.684;2022-07-23T05:52:50;100647.84;;;16.11;96.48
70468;BME280;57934;51.532;7.684;2022-07-23T05:55:31;100646.25;;;16.10;95.31
70468;BME280;57934;51.532;7.684;2022-07-23T05:57:58;100649.50;;;16.12;95.71
70468;BME280;57934;51.532;7.684;2022-07-23T06:00:25;100652.09;;;16.18;95.48
70468;BME280;57934;51.532;7.684;2022-07-23T06:02:51;100657.56;;;16.23;95.12
70468;BME280;57934;51.532;7.684;2022-07-23T06:05:18;100666.16;;;16.26;94.86
70468;BME280;57934;51.532;7.684;2022-07-23T06:07:45;100660.81;;;16.26;94.71
70468;BME280;57934;51.532;7.684;2022-07-23T06:10:12;100664.06;;;16.28;94.14
70468;BME280;57934;51.532;7.684;2022-07-23T06:12:38;100665.91;;;16.27;93.20
70468;BME280;57934;51.532;7.684;2022-07-23T06:15:05;100664.16;;;16.39;93.65
70468;BME280;57934;51.532;7.684;2022-07-23T06:17:33;100669.47;;;16.58;93.41
70468;BME280;57934;51.532;7.684;2022-07-23T06:19:59;100667.91;;;16.68;91.87
70468;BME280;57934;51.532;7.684;2022-07-23T06:22:25;100671.25;;;16.82;91.81
70468;BME280;57934;51.532;7.684;2022-07-23T06:24:51;100676.59;;;16.94;91.60
70468;BME280;57934;51.532;7.684;2022-07-23T06:27:19;100672.81;;;17.02;90.04
70468;BME280;57934;51.532;7.684;2022-07-23T06:29:45;100683.28;;;17.15;89.18
70468;BME280;57934;51.532;7.684;2022-07-23T06:32:11;100687.84;;;17.26;89.16
70468;BME280;57934;51.532;7.684;2022-07-23T06:34:37;100683.69;;;17.30;89.33
70468;BME280;57934;51.532;7.684;2022-07-23T06:37:03;100689.94;;;17.24;88.96
70468;BME280;57934;51.532;7.684;2022-07-23T06:39:29;100685.84;;;17.10;88.51
70468;BME280;57934;51.532;7.684;2022-07-23T06:41:57;100682.59;;;17.20;88.99
70468;BME280;57934;51.532;7.684;2022-07-23T06:44:35;100680.00;;;17.31;87.82
70468;BME280;57934;51.532;7.684;2022-07-23T06:47:01;100684.88;;;17.46;86.07
70468;BME280;57934;51.532;7.684;2022-07-23T06:49:27;100690.84;;;17.72;84.96
70468;BME280;57934;51.532;7.684;2022-07-23T06:51:56;100693.00;;;18.05;84.75
70468;BME280;57934;51.532;7.684;2022-07-23T06:54:22;100697.38;;;18.46;84.13
70468;BME280;57934;51.532;7.684;2022-07-23T06:56:48;100698.91;;;18.71;81.94
70468;BME280;57934;51.532;7.684;2022-07-23T06:59:15;100696.38;;;18.76;80.55
70468;BME280;57934;51.532;7.684;2022-07-23T07:01:42;100699.06;;;18.52;80.86
70468;BME280;57934;51.532;7.684;2022-07-23T07:04:08;100701.81;;;18.29;82.82
70468;BME280;57934;51.532;7.684;2022-07-23T07:06:34;100703.44;;;18.18;83.36
70468;BME280;57934;51.532;7.684;2022-07-23T07:09:00;100701.47;;;18.25;83.20
70468;BME280;57934;51.532;7.684;2022-07-23T07:11:26;100702.72;;;18.46;82.96
70468;BME280;57934;51.532;7.684;2022-07-23T07:13:52;100702.88;;;18.68;81.98
70468;BME280;57934;51.532;7.684;2022-07-23T07:16:18;100703.63;;;18.52;81.30
70468;BME280;57934;51.532;7.684;2022-07-23T07:18:44;100705.16;;;18.36;81.60
70468;BME280;57934;51.532;7.684;2022-07-23T07:21:11;100702.38;;;18.31;82.51
70468;BME280;57934;51.532;7.684;2022-07-23T07:23:37;100714.22;;;18.23;82.43
70468;BME280;57934;51.532;7.684;2022-07-23T07:26:02;100707.66;;;18.78;80.77
70468;BME280;57934;51.532;7.684;2022-07-23T07:28:28;100706.63;;;19.53;77.91
70468;BME280;57934;51.532;7.684;2022-07-23T07:30:55;100710.09;;;20.21;75.22
70468;BME280;57934;51.532;7.684;2022-07-23T07:33:20;100711.50;;;20.45;72.24
70468;BME280;57934;51.532;7.684;2022-07-23T07:35:47;100720.59;;;20.44;73.09
70468;BME280;57934;51.532;7.684;2022-07-23T07:38:13;100715.47;;;20.04;73.96
70468;BME280;57934;51.532;7.684;2022-07-23T07:40:39;100718.31;;;19.64;74.84
70468;BME280;57934;51.532;7.684;2022-07-23T07:43:05;100720.59;;;19.26;77.11
70468;BME280;57934;51.532;7.684;2022-07-23T07:45:31;100713.44;;;19.15;77.68
70468;BME280;57934;51.532;7.684;2022-07-23T07:47:57;100719.41;;;19.05;79.09
70468;BME280;57934;51.532;7.684;2022-07-23T07:50:23;100731.63;;;19.30;78.03
70468;BME280;57934;51.532;7.684;2022-07-23T07:52:50;100732.09;;;19.55;76.99
70468;BME280;57934;51.532;7.684;2022-07-23T07:55:16;100735.94;;;19.76;76.06
70468;BME280;57934;51.532;7.684;2022-07-23T07:57:42;100733.00;;;19.78;74.37
70468;BME280;57934;51.532;7.684;2022-07-23T08:00:09;100735.50;;;21.01;71.27
70468;BME280;57934;51.532;7.684;2022-07-23T08:02:49;100742.59;;;22.31;66.08
70468;BME280;57934;51.532;7.684;2022-07-23T08:05:26;100736.13;;;22.32;63.50
70468;BME280;57934;51.532;7.684;2022-07-23T08:07:53;100737.41;;;22.72;62.99
70468;BME280;57934;51.532;7.684;2022-07-23T08:10:19;100739.19;;;22.08;65.19
70468;BME280;57934;51.532;7.684;2022-07-23T08:12:47;100740.50;;;21.14;66.78
70468;BME280;57934;51.532;7.684;2022-07-23T08:15:15;100741.34;;;20.71;68.26
70468;BME280;57934;51.532;7.684;2022-07-23T08:17:43;100739.88;;;21.07;68.91
70468;BME280;57934;51.532;7.684;2022-07-23T08:20:10;100745.22;;;23.87;60.49
70468;BME280;57934;51.532;7.684;2022-07-23T08:22:53;100746.50;;;26.13;53.34
70468;BME280;57934;51.532;7.684;2022-07-23T08:25:25;100740.66;;;28.19;47.42
70468;BME280;57934;51.532;7.684;2022-07-23T08:27:51;100738.94;;;29.51;41.34
70468;BME280;57934;51.532;7.684;2022-07-23T08:30:18;100741.44;;;30.63;39.54
70468;BME280;57934;51.532;7.684;2022-07-23T08:32:52;100746.31;;;30.04;40.41
70468;BME280;57934;51.532;7.684;2022-07-23T08:37:53;100754.28;;;26.92;46.49
70468;BME280;57934;51.532;7.684;2022-07-23T08:40:20;100760.63;;;25.37;50.16
70468;BME280;57934;51.532;7.684;2022-07-23T08:42:48;100752.22;;;23.78;53.16
70468;BME280;57934;51.532;7.684;2022-07-23T08:45:17;100755.03;;;25.23;52.81
70468;BME280;57934;51.532;7.684;2022-07-23T08:47:44;100756.00;;;27.07;47.47
70468;BME280;57934;51.532;7.684;2022-07-23T08:50:10;100752.22;;;26.36;47.76
70468;BME280;57934;51.532;7.684;2022-07-23T08:52:37;100752.44;;;26.87;47.09
70468;BME280;57934;51.532;7.684;2022-07-23T08:55:04;100751.53;;;28.19;44.32
70468;BME280;57934;51.532;7.684;2022-07-23T08:57:30;100753.78;;;30.21;41.12
70468;BME280;57934;51.532;7.684;2022-07-23T08:59:57;100757.56;;;31.26;37.56
70468;BME280;57934;51.532;7.684;2022-07-23T09:02:23;100762.53;;;31.24;35.56
70468;BME280;57934;51.532;7.684;2022-07-23T09:04:49;100756.28;;;31.67;34.66
70468;BME280;57934;51.532;7.684;2022-07-23T09:07:15;100756.72;;;31.95;34.62
70468;BME280;57934;51.532;7.684;2022-07-23T09:09:41;100763.28;;;31.85;33.24
70468;BME280;57934;51.532;7.684;2022-07-23T09:12:09;100760.66;;;31.42;34.45
70468;BME280;57934;51.532;7.684;2022-07-23T09:14:45;100760.50;;;31.38;34.55
70468;BME280;57934;51.532;7.684;2022-07-23T09:17:16;100747.59;;;29.31;37.41
70468;BME280;57934;51.532;7.684;2022-07-23T09:19:43;100753.88;;;27.23;42.11
70468;BME280;57934;51.532;7.684;2022-07-23T09:22:20;100754.63;;;25.84;45.79
70468;BME280;57934;51.532;7.684;2022-07-23T09:27:46;100743.59;;;26.34;45.52
70468;BME280;57934;51.532;7.684;2022-07-23T09:30:13;100749.56;;;26.07;45.27
70468;BME280;57934;51.532;7.684;2022-07-23T09:32:39;100748.72;;;25.43;47.07
70468;BME280;57934;51.532;7.684;2022-07-23T09:35:06;100745.22;;;27.02;42.61
70468;BME280;57934;51.532;7.684;2022-07-23T09:37:32;100750.81;;;29.55;38.05
70468;BME280;57934;51.532;7.684;2022-07-23T09:40:09;100750.97;;;30.92;35.46
70468;BME280;57934;51.532;7.684;2022-07-23T09:42:35;100747.06;;;31.97;33.20
70468;BME280;57934;51.532;7.684;2022-07-23T09:45:02;100752.56;;;31.63;33.56
70468;BME280;57934;51.532;7.684;2022-07-23T09:47:31;100747.56;;;32.29;32.46
70468;BME280;57934;51.532;7.684;2022-07-23T09:50:08;100752.16;;;30.60;35.09
70468;BME280;57934;51.532;7.684;2022-07-23T09:52:46;100753.28;;;29.20;38.18
70468;BME280;57934;51.532;7.684;2022-07-23T09:55:13;100761.59;;;28.46;39.43
70468;BME280;57934;51.532;7.684;2022-07-23T09:57:43;100759.81;;;27.44;41.50
70468;BME280;57934;51.532;7.684;2022-07-23T10:00:16;100760.31;;;27.08;40.91
70468;BME280;57934;51.532;7.684;2022-07-23T10:02:42;100755.91;;;26.93;42.59
70468;BME280;57934;51.532;7.684;2022-07-23T10:05:26;100758.41;;;27.46;40.67
70468;BME280;57934;51.532;7.684;2022-07-23T10:08:11;100759.22;;;26.13;42.79
70468;BME280;57934;51.532;7.684;2022-07-23T10:10:57;100756.38;;;25.65;44.21
70468;BME280;57934;51.532;7.684;2022-07-23T10:13:44;100758.66;;;27.31;41.40
70468;BME280;57934;51.532;7.684;2022-07-23T10:16:37;100747.41;;;28.49;39.53
70468;BME280;57934;51.532;7.684;2022-07-23T10:19:04;100753.25;;;28.70;38.03
70468;BME280;57934;51.532;7.684;2022-07-23T10:21:48;100748.78;;;30.14;35.86
70468;BME280;57934;51.532;7.684;2022-07-23T10:24:28;100745.13;;;29.43;36.30
70468;BME280;57934;51.532;7.684;2022-07-23T10:27:39;100747.78;;;28.01;38.63
70468;BME280;57934;51.532;7.684;2022-07-23T10:33:09;100749.63;;;29.92;34.41
70468;BME280;57934;51.532;7.684;2022-07-23T10:35:47;100749.75;;;31.42;33.10
70468;BME280;57934;51.532;7.684;2022-07-23T10:38:24;100738.63;;;32.58;30.76
70468;BME280;57934;51.532;7.684;2022-07-23T10:40:55;100746.31;;;32.65;30.63
70468;BME280;57934;51.532;7.684;2022-07-23T10:43:21;100741.69;;;32.18;32.19
70468;BME280;57934;51.532;7.684;2022-07-23T10:45:48;100748.19;;;32.43;31.46
70468;BME280;57934;51.532;7.684;2022-07-23T10:48:15;100741.16;;;32.63;29.50
70468;BME280;57934;51.532;7.684;2022-07-23T10:50:43;100743.78;;;31.57;31.90
70468;BME280;57934;51.532;7.684;2022-07-23T10:53:15;100743.59;;;31.71;31.09
70468;BME280;57934;51.532;7.684;2022-07-23T10:55:48;100740.00;;;32.35;29.21
70468;BME280;57934;51.532;7.684;2022-07-23T10:58:20;100743.03;;;32.50;29.06
70468;BME280;57934;51.532;7.684;2022-07-23T11:00:46;100739.75;;;31.54;31.02
70468;BME280;57934;51.532;7.684;2022-07-23T11:03:33;100736.34;;;32.30;30.55
70468;BME280;57934;51.532;7.684;2022-07-23T11:06:02;100744.69;;;31.87;30.28
70468;BME280;57934;51.532;7.684;2022-07-23T11:08:29;100736.16;;;31.80;31.33
70468;BME280;57934;51.532;7.684;2022-07-23T11:11:07;100740.66;;;31.93;30.68
70468;BME280;57934;51.532;7.684;2022-07-23T11:31:55;100720.28;;;30.60;33.46
70468;BME280;57934;51.532;7.684;2022-07-23T11:34:27;100725.44;;;30.62;32.60
70468;BME280;57934;51.532;7.684;2022-07-23T11:36:54;100724.34;;;31.67;32.22
70468;BME280;57934;51.532;7.684;2022-07-23T11:39:20;100725.97;;;31.59;31.50
70468;BME280;57934;51.532;7.684;2022-07-23T11:41:47;100725.50;;;31.57;30.21
70468;BME280;57934;51.532;7.684;2022-07-23T11:44:36;100722.28;;;30.95;31.32
70468;BME280;57934;51.532;7.684;2022-07-23T11:47:10;100721.00;;;31.27;31.35
70468;BME280;57934;51.532;7.684;2022-07-23T11:49:38;100716.38;;;31.36;31.93
70468;BME280;57934;51.532;7.684;2022-07-23T11:52:08;100710.56;;;32.19;30.14
70468;BME280;57934;51.532;7.684;2022-07-23T11:54:37;100722.69;;;32.60;29.90
70468;BME280;57934;51.532;7.684;2022-07-23T11:57:11;100720.34;;;32.79;29.70
70468;BME280;57934;51.532;7.684;2022-07-23T11:59:38;100718.41;;;32.80;29.51
70468;BME280;57934;51.532;7.684;2022-07-23T12:02:06;100717.41;;;31.78;29.93
70468;BME280;57934;51.532;7.684;2022-07-23T12:04:43;100721.53;;;30.06;32.14
70468;BME280;57934;51.532;7.684;2022-07-23T12:09:57;100721.25;;;27.14;39.02
70468;BME280;57934;51.532;7.684;2022-07-23T12:12:25;100719.78;;;26.60;39.59
70468;BME280;57934;51.532;7.684;2022-07-23T12:14:53;100713.03;;;26.09;41.36
70468;BME280;57934;51.532;7.684;2022-07-23T12:17:20;100714.34;;;25.88;42.73
70468;BME280;57934;51.532;7.684;2022-07-23T12:19:47;100703.66;;;26.02;43.35
70468;BME280;57934;51.532;7.684;2022-07-23T12:22:13;100709.31;;;26.05;43.51
70468;BME280;57934;51.532;7.684;2022-07-23T12:24:59;100706.22;;;25.54;43.97
70468;BME280;57934;51.532;7.684;2022-07-23T12:27:26;100707.09;;;25.44;44.68
70468;BME280;57934;51.532;7.684;2022-07-23T12:29:53;100709.63;;;25.35;44.97
70468;BME280;57934;51.532;7.684;2022-07-23T12:32:22;100721.22;;;25.36;44.03
70468;BME280;57934;51.532;7.684;2022-07-23T12:34:50;100706.88;;;24.96;43.41
70468;BME280;57934;51.532;7.684;2022-07-23T12:37:30;100710.50;;;24.71;45.49
70468;BME280;57934;51.532;7.684;2022-07-23T12:39:57;100707.78;;;24.71;45.46
70468;BME280;57934;51.532;7.684;2022-07-23T12:42:23;100704.09;;;24.57;45.69
70468;BME280;57934;51.532;7.684;2022-07-23T12:45:07;100695.75;;;24.53;44.71
70468;BME280;57934;51.532;7.684;2022-07-23T12:47:53;100708.38;;;24.63;46.52
70468;BME280;57934;51.532;7.684;2022-07-23T12:50:40;100713.66;;;24.88;43.92
70468;BME280;57934;51.532;7.684;2022-07-23T12:53:09;100707.84;;;24.66;45.21
70468;BME280;57934;51.532;7.684;2022-07-23T12:55:36;100706.53;;;24.58;44.69
70468;BME280;57934;51.532;7.684;2022-07-23T12:58:19;100710.63;;;24.40;45.66
70468;BME280;57934;51.532;7.684;2022-07-23T13:05:51;100718.84;;;24.74;45.30
70468;BME280;57934;51.532;7.684;2022-07-23T13:08:18;100716.63;;;24.87;44.48
70468;BME280;57934;51.532;7.684;2022-07-23T13:10:44;100722.53;;;24.94;45.36
70468;BME280;57934;51.532;7.684;2022-07-23T13:13:15;100717.53;;;24.67;44.27
70468;BME280;57934;51.532;7.684;2022-07-23T13:15:42;100718.69;;;24.35;44.18
70468;BME280;57934;51.532;7.684;2022-07-23T13:18:09;100719.31;;;23.96;45.34
70468;BME280;57934;51.532;7.684;2022-07-23T13:20:35;100714.72;;;24.07;46.51
70468;BME280;57934;51.532;7.684;2022-07-23T13:23:02;100720.91;;;24.08;45.74
70468;BME280;57934;51.532;7.684;2022-07-23T13:25:28;100723.06;;;24.11;46.20
70468;BME280;57934;51.532;7.684;2022-07-23T13:27:54;100717.16;;;24.09;46.30